Time;durP1;ratioP1;P1;durP2;ratioP2;P2;SDS_P1;SDS_P2;PMS_P1;PMS_P2;Temp;Humidity;BMP_temperature;BMP_pressure;BME280_temperature;BME280_humidity;BME280_pressure;Samples;Min_cycle;Max_cycle;Signal;HPM_P1;HPM_P2
2022/07/13 00:01:37;;;;;;;;;;;20.00;99.90;;;;;;5166138;27;20365;-72
2022/07/13 00:04:02;;;;;;;;;;;20.00;99.90;;;;;;5138613;27;19978;-72
2022/07/13 00:06:28;;;;;;;;;;;19.00;99.90;;;;;;5165944;27;19981;-72
2022/07/13 00:08:53;;;;;;;;;;;20.00;99.90;;;;;;5163467;27;20369;-72
2022/07/13 00:11:19;;;;;;;;;;;20.00;99.90;;;;;;5163068;27;20018;-73
2022/07/13 00:13:44;;;;;;;;;;;20.00;99.90;;;;;;5143506;27;20295;-73
2022/07/13 00:16:10;;;;;;;;;;;20.00;99.90;;;;;;5144155;27;19969;-73
2022/07/13 00:18:35;;;;;;;;;;;20.00;99.90;;;;;;5146127;27;19929;-73
2022/07/13 00:21:01;;;;;;;;;;;20.00;99.90;;;;;;5143532;27;19946;-71
2022/07/13 00:23:26;;;;;;;;;;;20.00;99.90;;;;;;5147407;27;19918;-72
2022/07/13 00:25:52;;;;;;;;;;;20.00;99.90;;;;;;5162237;27;19926;-72
2022/07/13 00:28:17;;;;;;;;;;;20.00;99.90;;;;;;5143393;27;20277;-72
2022/07/13 00:30:43;;;;;;;;;;;20.00;99.90;;;;;;5144520;27;19975;-73
2022/07/13 00:33:08;;;;;;;;;;;20.00;99.90;;;;;;5145319;27;20009;-72
2022/07/13 00:35:34;;;;;;;;;;;20.00;99.90;;;;;;5143949;27;19958;-72
2022/07/13 00:38:00;;;;;;;;;;;20.10;99.90;;;;;;5146285;27;19923;-72
2022/07/13 00:40:25;;;;;;;;;;;20.10;99.90;;;;;;5144109;27;20362;-71
2022/07/13 00:42:51;;;;;;;;;;;20.10;99.90;;;;;;5142924;27;20386;-72
2022/07/13 00:45:17;;;;;;;;;;;20.00;99.90;;;;;;5144275;27;20009;-72
2022/07/13 00:47:42;;;;;;;;;;;20.10;99.90;;;;;;5163797;27;20335;-72
2022/07/13 00:50:08;;;;;;;;;;;20.10;99.90;;;;;;5144209;27;19923;-72
2022/07/13 00:52:34;;;;;;;;;;;20.20;99.90;;;;;;5159921;27;19923;-72
2022/07/13 00:55:00;;;;;;;;;;;20.20;99.90;;;;;;5143361;27;19976;-72
2022/07/13 00:57:27;;;;;;;;;;;20.20;99.90;;;;;;5165681;27;19991;-73
2022/07/13 00:59:52;;;;;;;;;;;20.30;99.90;;;;;;5160862;27;19934;-72
2022/07/13 01:02:18;;;;;;;;;;;20.30;99.90;;;;;;5146638;27;20301;-72
2022/07/13 01:04:43;;;;;;;;;;;20.30;99.90;;;;;;5144989;27;20374;-72
2022/07/13 01:07:09;;;;;;;;;;;20.20;99.90;;;;;;5162792;27;19927;-72
2022/07/13 01:09:35;;;;;;;;;;;20.30;99.90;;;;;;5145322;27;19919;-72
2022/07/13 01:12:00;;;;;;;;;;;20.30;99.90;;;;;;5143570;27;20310;-72
2022/07/13 01:14:26;;;;;;;;;;;20.30;99.90;;;;;;5146288;27;19948;-72
2022/07/13 01:16:53;;;;;;;;;;;20.30;99.90;;;;;;5161360;27;20422;-72
2022/07/13 01:19:18;;;;;;;;;;;20.30;99.90;;;;;;5144209;27;19962;-72
2022/07/13 01:21:45;;;;;;;;;;;20.30;99.90;;;;;;5163992;27;19981;-72
2022/07/13 01:24:13;;;;;;;;;;;20.30;99.90;;;;;;5162513;27;19972;-72
2022/07/13 01:26:39;;;;;;;;;;;20.30;99.90;;;;;;5163876;27;20374;-72
2022/07/13 01:29:05;;;;;;;;;;;20.30;99.90;;;;;;5162711;27;19922;-72
2022/07/13 01:31:37;;;;;;;;;;;20.30;99.90;;;;;;5162536;27;19924;-72
2022/07/13 01:34:03;;;;;;;;;;;20.30;99.90;;;;;;5143885;27;19933;-72
2022/07/13 01:36:29;;;;;;;;;;;20.20;99.90;;;;;;5143872;27;19925;-72
2022/07/13 01:38:55;;;;;;;;;;;20.20;99.90;;;;;;5145363;27;19930;-72
2022/07/13 01:41:21;;;;;;;;;;;20.10;99.90;;;;;;5161123;27;20009;-72
2022/07/13 01:43:47;;;;;;;;;;;20.10;99.90;;;;;;5148665;27;20407;-72
2022/07/13 01:46:12;;;;;;;;;;;20.00;99.90;;;;;;5165612;27;19923;-72
2022/07/13 01:48:37;;;;;;;;;;;20.20;99.90;;;;;;5148363;27;19923;-72
2022/07/13 01:51:03;;;;;;;;;;;20.00;99.90;;;;;;5147883;27;20018;-71
2022/07/13 01:53:28;;;;;;;;;;;20.00;99.90;;;;;;5167215;27;20006;-72
2022/07/13 01:55:54;;;;;;;;;;;19.90;99.90;;;;;;5164917;27;19970;-72
2022/07/13 01:58:19;;;;;;;;;;;19.90;99.90;;;;;;5150115;27;19922;-72
2022/07/13 02:00:45;;;;;;;;;;;19.90;99.90;;;;;;5164759;27;20370;-72
2022/07/13 02:03:11;;;;;;;;;;;19.90;99.90;;;;;;5148697;27;20013;-71
2022/07/13 02:05:36;;;;;;;;;;;20.00;99.90;;;;;;5166912;27;19930;-72
2022/07/13 02:08:03;;;;;;;;;;;19.90;99.90;;;;;;5165680;27;20301;-72
2022/07/13 02:10:34;;;;;;;;;;;19.90;99.90;;;;;;5166047;27;19923;-72
2022/07/13 02:13:04;;;;;;;;;;;19.90;99.90;;;;;;5147583;27;19925;-72
2022/07/13 02:15:30;;;;;;;;;;;19.90;99.90;;;;;;5166975;27;19923;-72
2022/07/13 02:17:55;;;;;;;;;;;19.90;99.90;;;;;;5165329;27;19966;-72
2022/07/13 02:20:21;;;;;;;;;;;19.80;99.90;;;;;;5146087;27;20033;-72
2022/07/13 02:22:46;;;;;;;;;;;19.80;99.90;;;;;;5164341;27;19933;-72
2022/07/13 02:25:12;;;;;;;;;;;19.80;99.90;;;;;;5145278;27;20361;-72
2022/07/13 02:27:38;;;;;;;;;;;19.80;99.90;;;;;;5149393;27;19923;-72
2022/07/13 02:30:04;;;;;;;;;;;19.80;99.90;;;;;;5146183;27;19923;-72
2022/07/13 02:32:29;;;;;;;;;;;19.90;99.90;;;;;;5148157;27;20419;-72
2022/07/13 02:34:55;;;;;;;;;;;19.90;99.90;;;;;;5165501;27;20388;-72
2022/07/13 02:37:21;;;;;;;;;;;19.80;99.90;;;;;;5163840;27;19930;-72
2022/07/13 02:39:46;;;;;;;;;;;19.90;99.90;;;;;;5165076;27;19927;-72
2022/07/13 02:42:11;;;;;;;;;;;19.90;99.90;;;;;;5167544;27;20375;-72
2022/07/13 02:44:37;;;;;;;;;;;20.00;99.90;;;;;;5163381;27;19981;-72
2022/07/13 02:47:02;;;;;;;;;;;19.90;99.90;;;;;;5167351;27;19930;-72
2022/07/13 02:49:28;;;;;;;;;;;19.80;99.90;;;;;;5142850;27;20370;-72
2022/07/13 02:51:53;;;;;;;;;;;19.90;99.90;;;;;;5139480;27;19930;-72
2022/07/13 02:54:20;;;;;;;;;;;19.90;99.90;;;;;;5144477;27;19930;-72
2022/07/13 02:56:45;;;;;;;;;;;19.80;99.90;;;;;;5143808;27;19927;-72
2022/07/13 02:59:11;;;;;;;;;;;19.80;99.90;;;;;;5144790;27;19929;-72
2022/07/13 03:01:36;;;;;;;;;;;19.80;99.90;;;;;;5142909;27;19923;-72
2022/07/13 03:04:02;;;;;;;;;;;19.80;99.90;;;;;;5146303;27;19927;-72
2022/07/13 03:06:27;;;;;;;;;;;19.80;99.90;;;;;;5140300;27;19971;-72
2022/07/13 03:08:53;;;;;;;;;;;19.70;99.90;;;;;;5143858;27;19930;-73
2022/07/13 03:11:19;;;;;;;;;;;19.70;99.90;;;;;;5143736;27;19975;-72
2022/07/13 03:13:44;;;;;;;;;;;19.70;99.90;;;;;;5144334;27;20361;-72
2022/07/13 03:16:10;;;;;;;;;;;19.60;99.90;;;;;;5138584;27;19923;-72
2022/07/13 03:18:35;;;;;;;;;;;19.60;99.90;;;;;;5145111;27;19930;-72
2022/07/13 03:21:01;;;;;;;;;;;19.70;99.90;;;;;;5141595;27;19923;-71
2022/07/13 03:23:27;;;;;;;;;;;19.60;99.90;;;;;;5144739;27;19919;-71
2022/07/13 03:25:52;;;;;;;;;;;19.60;99.90;;;;;;5141954;27;20385;-71
2022/07/13 03:28:18;;;;;;;;;;;19.60;99.90;;;;;;5143600;27;20346;-71
2022/07/13 03:30:43;;;;;;;;;;;19.60;99.90;;;;;;5138066;27;19926;-71
2022/07/13 03:33:09;;;;;;;;;;;19.60;99.90;;;;;;5141362;27;20080;-71
2022/07/13 03:35:37;;;;;;;;;;;19.60;99.90;;;;;;5144172;27;19923;-71
2022/07/13 03:38:03;;;;;;;;;;;19.60;99.90;;;;;;5140416;27;20017;-72
2022/07/13 03:40:28;;;;;;;;;;;19.60;99.90;;;;;;5144654;27;20006;-72
2022/07/13 03:42:54;;;;;;;;;;;19.60;99.90;;;;;;5140949;27;19931;-72
2022/07/13 03:45:19;;;;;;;;;;;19.60;99.90;;;;;;5141739;27;19930;-72
2022/07/13 03:47:45;;;;;;;;;;;19.50;99.90;;;;;;5141855;27;19924;-72
2022/07/13 03:50:10;;;;;;;;;;;19.50;99.90;;;;;;5142432;27;20036;-71
2022/07/13 03:52:36;;;;;;;;;;;19.60;99.90;;;;;;5142835;27;20294;-72
2022/07/13 03:55:01;;;;;;;;;;;19.60;99.90;;;;;;5144012;27;19926;-72
2022/07/13 03:57:27;;;;;;;;;;;19.70;99.90;;;;;;5140786;27;20318;-72
2022/07/13 03:59:52;;;;;;;;;;;19.80;99.90;;;;;;5137843;27;20294;-72
2022/07/13 04:02:18;;;;;;;;;;;19.80;99.90;;;;;;5141080;27;19931;-72
2022/07/13 04:04:44;;;;;;;;;;;19.80;99.90;;;;;;5143050;27;19930;-71
2022/07/13 04:07:09;;;;;;;;;;;19.90;99.90;;;;;;5143139;27;19927;-72
2022/07/13 04:09:35;;;;;;;;;;;19.90;99.90;;;;;;5143450;27;20316;-80
2022/07/13 04:12:00;;;;;;;;;;;19.90;99.90;;;;;;5141758;27;20321;-80
2022/07/13 04:14:26;;;;;;;;;;;20.30;99.90;;;;;;5144048;27;19923;-78
2022/07/13 04:16:51;;;;;;;;;;;20.00;99.90;;;;;;5139711;27;19963;-79
2022/07/13 04:19:17;;;;;;;;;;;20.00;99.90;;;;;;5144707;27;19923;-76
2022/07/13 04:21:42;;;;;;;;;;;20.00;99.90;;;;;;5141229;27;20301;-77
2022/07/13 04:24:08;;;;;;;;;;;20.10;99.90;;;;;;5137769;27;19968;-78
2022/07/13 04:26:33;;;;;;;;;;;20.10;99.90;;;;;;5143574;27;19983;-76
2022/07/13 04:28:59;;;;;;;;;;;20.10;99.90;;;;;;5142145;27;19931;-78
2022/07/13 04:31:25;;;;;;;;;;;20.20;99.90;;;;;;5142528;27;20286;-79
2022/07/13 04:33:50;;;;;;;;;;;20.20;99.90;;;;;;5135267;27;20419;-79
2022/07/13 04:36:16;;;;;;;;;;;20.20;99.90;;;;;;5144719;27;19927;-79
2022/07/13 04:38:41;;;;;;;;;;;20.20;99.90;;;;;;5139939;27;19938;-78
2022/07/13 04:41:07;;;;;;;;;;;20.10;99.90;;;;;;5141961;27;20279;-79
2022/07/13 04:43:32;;;;;;;;;;;20.20;99.90;;;;;;5141970;27;19926;-79
2022/07/13 04:45:58;;;;;;;;;;;20.10;99.90;;;;;;5141464;27;19923;-79
2022/07/13 04:48:23;;;;;;;;;;;20.10;99.90;;;;;;5153305;27;20017;-78
2022/07/13 04:50:49;;;;;;;;;;;20.10;99.90;;;;;;5144436;27;19930;-79
2022/07/13 04:53:14;;;;;;;;;;;20.10;99.90;;;;;;5155675;27;19931;-79
2022/07/13 04:55:40;;;;;;;;;;;20.10;99.90;;;;;;5145032;27;19923;-79
2022/07/13 04:58:07;;;;;;;;;;;20.10;99.90;;;;;;5142081;27;20049;-79
2022/07/13 05:00:33;;;;;;;;;;;20.00;99.90;;;;;;5162837;27;19984;-79
2022/07/13 05:02:59;;;;;;;;;;;20.10;99.90;;;;;;5159720;27;19919;-79
2022/07/13 05:05:24;;;;;;;;;;;20.10;99.90;;;;;;5143578;27;19930;-79
2022/07/13 05:07:50;;;;;;;;;;;20.10;99.90;;;;;;5146143;27;20033;-79
2022/07/13 05:10:15;;;;;;;;;;;20.10;99.90;;;;;;5143440;27;19923;-79
2022/07/13 05:12:42;;;;;;;;;;;20.10;99.90;;;;;;5165110;27;20334;-79
2022/07/13 05:15:08;;;;;;;;;;;20.10;99.90;;;;;;5143410;27;20001;-79
2022/07/13 05:17:34;;;;;;;;;;;20.10;99.90;;;;;;5144570;27;20352;-79
2022/07/13 05:19:59;;;;;;;;;;;20.20;99.90;;;;;;5146377;27;19970;-79
2022/07/13 05:22:25;;;;;;;;;;;20.20;99.90;;;;;;5165629;27;19923;-79
2022/07/13 05:24:50;;;;;;;;;;;20.20;99.90;;;;;;5166698;27;20286;-79
2022/07/13 05:27:16;;;;;;;;;;;20.30;99.90;;;;;;5149560;27;19923;-79
2022/07/13 05:29:41;;;;;;;;;;;20.20;99.90;;;;;;5166079;27;19969;-79
2022/07/13 05:32:07;;;;;;;;;;;20.30;99.90;;;;;;5168219;27;19930;-79
2022/07/13 05:34:32;;;;;;;;;;;20.30;99.90;;;;;;5167550;27;19927;-79
2022/07/13 05:36:58;;;;;;;;;;;20.20;99.90;;;;;;5147526;27;19974;-79
2022/07/13 05:39:23;;;;;;;;;;;20.20;99.90;;;;;;5167490;27;19923;-79
2022/07/13 05:41:49;;;;;;;;;;;20.20;99.90;;;;;;5167190;27;19945;-79
2022/07/13 05:44:14;;;;;;;;;;;20.20;99.90;;;;;;5147689;27;20018;-80
2022/07/13 05:46:40;;;;;;;;;;;20.20;99.90;;;;;;5147955;27;19923;-79
2022/07/13 05:49:05;;;;;;;;;;;20.20;99.90;;;;;;5145538;27;19934;-81
2022/07/13 05:51:31;;;;;;;;;;;20.30;99.90;;;;;;5149581;27;19927;-81
2022/07/13 05:53:57;;;;;;;;;;;20.30;99.90;;;;;;5166251;27;20278;-80
2022/07/13 05:56:22;;;;;;;;;;;20.30;99.90;;;;;;5166580;27;20339;-80
2022/07/13 05:58:48;;;;;;;;;;;20.20;99.90;;;;;;5149016;27;20362;-80
2022/07/13 06:01:13;;;;;;;;;;;20.30;99.90;;;;;;5164872;27;20373;-80
2022/07/13 06:03:39;;;;;;;;;;;20.30;99.90;;;;;;5149398;27;19958;-80
2022/07/13 06:06:05;;;;;;;;;;;20.30;99.90;;;;;;5145929;27;19968;-81
2022/07/13 06:08:30;;;;;;;;;;;20.30;99.90;;;;;;5149536;27;19971;-80
2022/07/13 06:10:56;;;;;;;;;;;20.40;99.90;;;;;;5167190;27;19935;-81
2022/07/13 06:13:22;;;;;;;;;;;20.30;99.90;;;;;;5165913;27;19930;-76
2022/07/13 06:15:47;;;;;;;;;;;20.30;99.90;;;;;;5166022;27;20339;-77
2022/07/13 06:18:13;;;;;;;;;;;20.40;99.90;;;;;;5167077;27;20473;-81
2022/07/13 06:20:38;;;;;;;;;;;20.40;99.90;;;;;;5147120;27;19930;-84
2022/07/13 06:23:10;;;;;;;;;;;20.50;99.90;;;;;;5144049;27;19919;-76
2022/07/13 06:25:36;;;;;;;;;;;20.40;99.90;;;;;;5168941;27;20251;-78
2022/07/13 06:28:05;;;;;;;;;;;20.50;99.90;;;;;;5146413;27;19965;-81
2022/07/13 06:30:34;;;;;;;;;;;20.50;99.90;;;;;;5148891;27;19927;-79
2022/07/13 06:32:59;;;;;;;;;;;21.10;99.90;;;;;;5164274;27;19923;-86
2022/07/13 06:35:25;;;;;;;;;;;20.70;99.90;;;;;;5167921;27;19923;-82
2022/07/13 06:37:50;;;;;;;;;;;20.70;99.90;;;;;;5164810;27;19923;-85
2022/07/13 06:40:16;;;;;;;;;;;20.80;99.90;;;;;;5148150;27;20335;-76
2022/07/13 06:42:42;;;;;;;;;;;20.80;99.90;;;;;;5149515;27;20255;-82
2022/07/13 06:45:07;;;;;;;;;;;20.90;99.90;;;;;;5147298;27;19923;-77
2022/07/13 06:47:33;;;;;;;;;;;20.90;99.90;;;;;;5164416;27;19975;-77
2022/07/13 06:49:58;;;;;;;;;;;20.90;99.90;;;;;;5148165;27;19923;-78
2022/07/13 06:52:24;;;;;;;;;;;21.00;99.90;;;;;;5145219;27;19983;-79
2022/07/13 06:54:49;;;;;;;;;;;21.10;99.90;;;;;;5148454;27;19958;-79
2022/07/13 06:57:15;;;;;;;;;;;21.10;99.90;;;;;;5146751;27;19923;-80
2022/07/13 06:59:42;;;;;;;;;;;21.10;99.90;;;;;;5164911;27;19930;-81
2022/07/13 07:02:08;;;;;;;;;;;21.20;99.90;;;;;;5146785;27;19927;-80
2022/07/13 07:04:34;;;;;;;;;;;21.30;99.90;;;;;;5163821;27;20030;-84
2022/07/13 07:07:00;;;;;;;;;;;21.30;99.90;;;;;;5143753;27;19930;-83
2022/07/13 07:09:26;;;;;;;;;;;21.40;99.90;;;;;;5143344;27;19923;-84
2022/07/13 07:11:51;;;;;;;;;;;21.40;99.90;;;;;;5154308;27;19976;-84
2022/07/13 07:14:17;;;;;;;;;;;21.50;99.90;;;;;;5147062;27;20013;-83
2022/07/13 07:16:43;;;;;;;;;;;21.60;99.90;;;;;;5143158;27;19923;-83
2022/07/13 07:19:09;;;;;;;;;;;21.60;99.90;;;;;;5145277;27;19923;-84
2022/07/13 07:21:34;;;;;;;;;;;21.70;99.90;;;;;;5165911;27;20301;-83
2022/07/13 07:24:00;;;;;;;;;;;21.80;99.90;;;;;;5162892;27;19923;-84
2022/07/13 07:26:26;;;;;;;;;;;22.00;99.90;;;;;;5163449;27;20323;-84
2022/07/13 07:28:51;;;;;;;;;;;22.30;99.90;;;;;;5166447;27;20015;-83
2022/07/13 07:31:17;;;;;;;;;;;23.10;99.90;;;;;;5144895;27;19980;-84
2022/07/13 07:33:42;;;;;;;;;;;24.10;99.90;;;;;;5165680;27;19931;-83
2022/07/13 07:36:08;;;;;;;;;;;25.00;99.90;;;;;;5164063;27;20374;-83
2022/07/13 07:38:33;;;;;;;;;;;25.90;99.90;;;;;;5144358;27;19927;-84
2022/07/13 07:40:59;;;;;;;;;;;26.80;99.90;;;;;;5143917;27;19976;-84
2022/07/13 07:43:24;;;;;;;;;;;27.30;99.60;;;;;;5147886;27;19930;-84
2022/07/13 07:45:50;;;;;;;;;;;28.00;98.50;;;;;;5144378;27;19978;-84
2022/07/13 07:48:15;;;;;;;;;;;28.60;97.80;;;;;;5143687;27;19966;-84
2022/07/13 07:50:41;;;;;;;;;;;29.10;97.30;;;;;;5137294;27;19927;-84
2022/07/13 07:53:06;;;;;;;;;;;29.50;96.40;;;;;;5142881;27;19923;-83
2022/07/13 07:55:32;;;;;;;;;;;29.60;94.60;;;;;;5142131;27;19930;-84
2022/07/13 07:57:58;;;;;;;;;;;30.00;94.30;;;;;;5141780;27;19927;-84
2022/07/13 08:00:24;;;;;;;;;;;30.60;94.10;;;;;;5145149;27;20502;-84
2022/07/13 08:02:49;;;;;;;;;;;30.70;93.00;;;;;;5141873;27;20395;-83
2022/07/13 08:05:15;;;;;;;;;;;31.10;92.80;;;;;;5145671;27;19958;-83
2022/07/13 08:07:42;;;;;;;;;;;30.80;92.50;;;;;;5142057;27;20382;-83
2022/07/13 08:10:08;;;;;;;;;;;31.20;93.50;;;;;;5144172;27;19923;-83
2022/07/13 08:12:33;;;;;;;;;;;31.60;93.00;;;;;;5142938;27;19930;-84
2022/07/13 08:14:59;;;;;;;;;;;31.70;92.30;;;;;;5139232;27;20030;-84
2022/07/13 08:17:24;;;;;;;;;;;32.00;91.70;;;;;;5142071;27;19959;-84
2022/07/13 08:19:50;;;;;;;;;;;32.00;91.60;;;;;;5144390;27;19919;-84
2022/07/13 08:22:15;;;;;;;;;;;32.00;92.00;;;;;;5140943;27;20293;-84
2022/07/13 08:24:41;;;;;;;;;;;32.20;92.40;;;;;;5140228;27;19972;-84
2022/07/13 08:27:06;;;;;;;;;;;32.10;91.70;;;;;;5143648;27;20290;-84
2022/07/13 08:29:32;;;;;;;;;;;32.20;91.70;;;;;;5141638;27;19974;-83
2022/07/13 08:31:57;;;;;;;;;;;32.20;91.80;;;;;;5142948;27;20014;-85
2022/07/13 08:39:51;;;;;;;;;;;32.60;91.80;;;;;;5139093;27;19924;-81
2022/07/13 08:42:17;;;;;;;;;;;32.70;91.00;;;;;;5144148;27;19930;-80
2022/07/13 08:44:42;;;;;;;;;;;32.80;90.70;;;;;;5139648;27;19923;-81
2022/07/13 08:47:09;;;;;;;;;;;33.00;91.30;;;;;;5144871;27;19976;-80
2022/07/13 08:49:35;;;;;;;;;;;33.10;90.80;;;;;;5161151;27;19923;-80
2022/07/13 08:52:00;;;;;;;;;;;33.10;90.40;;;;;;5159797;27;20293;-80
2022/07/13 08:54:26;;;;;;;;;;;33.40;90.30;;;;;;5166479;27;20274;-79
2022/07/13 08:56:52;;;;;;;;;;;33.30;90.50;;;;;;5149107;27;19930;-78
2022/07/13 08:59:17;;;;;;;;;;;33.10;90.50;;;;;;5148951;27;19927;-79
2022/07/13 09:01:43;;;;;;;;;;;32.80;90.50;;;;;;5168607;27;20284;-79
2022/07/13 09:04:12;;;;;;;;;;;32.70;90.00;;;;;;5146543;27;20342;-79
2022/07/13 09:06:43;;;;;;;;;;;32.80;90.10;;;;;;5148806;27;19923;-78
2022/07/13 09:09:31;;;;;;;;;;;33.00;89.90;;;;;;5169282;27;19927;-79
2022/07/13 09:12:15;;;;;;;;;;;32.50;90.00;;;;;;5149435;27;19939;-79
2022/07/13 09:14:41;;;;;;;;;;;32.80;90.60;;;;;;5165727;27;19922;-77
2022/07/13 09:17:07;;;;;;;;;;;32.70;90.40;;;;;;5161748;27;19923;-82
2022/07/13 09:19:37;;;;;;;;;;;32.70;91.30;;;;;;5149993;27;19942;-76
2022/07/13 09:22:06;;;;;;;;;;;33.00;90.90;;;;;;5162645;27;19946;-76
2022/07/13 09:24:42;;;;;;;;;;;32.90;88.60;;;;;;5169546;27;19923;-78
2022/07/13 09:27:08;;;;;;;;;;;33.10;89.40;;;;;;5144120;27;19930;-78
2022/07/13 09:29:35;;;;;;;;;;;32.60;88.00;;;;;;5150401;27;19927;-76
2022/07/13 09:32:04;;;;;;;;;;;32.70;88.40;;;;;;5165802;27;19926;-75
2022/07/13 09:34:50;;;;;;;;;;;33.00;86.50;;;;;;5162100;27;19923;-77
2022/07/13 09:37:19;;;;;;;;;;;32.80;87.20;;;;;;5162444;27;19923;-79
2022/07/13 09:39:57;;;;;;;;;;;33.10;88.10;;;;;;5164037;27;19926;-78
2022/07/13 09:42:30;;;;;;;;;;;32.90;86.90;;;;;;5150238;27;19946;-81
2022/07/13 09:47:53;;;;;;;;;;;33.10;88.30;;;;;;5145668;27;19930;-78
2022/07/13 09:50:20;;;;;;;;;;;33.30;87.10;;;;;;5166539;27;19962;-78
2022/07/13 09:52:46;;;;;;;;;;;32.70;88.60;;;;;;5160288;27;19934;-76
2022/07/13 09:55:14;;;;;;;;;;;33.00;90.00;;;;;;5158083;27;19977;-77
2022/07/13 09:57:45;;;;;;;;;;;33.00;90.30;;;;;;5136278;27;19923;-76
2022/07/13 10:00:11;;;;;;;;;;;33.20;88.80;;;;;;5156426;27;19923;-77
2022/07/13 10:02:38;;;;;;;;;;;33.20;86.80;;;;;;5156331;27;19923;-77
2022/07/13 10:05:05;;;;;;;;;;;33.10;88.60;;;;;;5157809;27;19927;-77
2022/07/13 10:07:31;;;;;;;;;;;32.90;88.70;;;;;;5136592;27;19919;-77
2022/07/13 10:09:57;;;;;;;;;;;33.20;87.80;;;;;;5137824;27;19927;-77
2022/07/13 10:12:23;;;;;;;;;;;33.10;87.60;;;;;;5158605;27;19930;-78
2022/07/13 10:14:49;;;;;;;;;;;33.20;86.20;;;;;;5157128;27;19918;-76
2022/07/13 10:17:16;;;;;;;;;;;33.30;86.10;;;;;;5137780;27;19973;-77
2022/07/13 10:19:57;;;;;;;;;;;33.00;87.60;;;;;;5157181;27;19998;-76
2022/07/13 10:22:29;;;;;;;;;;;33.40;85.70;;;;;;5137700;27;19923;-76
2022/07/13 10:24:57;;;;;;;;;;;33.30;86.90;;;;;;5139046;27;19930;-76
2022/07/13 10:27:32;;;;;;;;;;;33.20;85.90;;;;;;5141433;27;19922;-76
2022/07/13 10:30:03;;;;;;;;;;;32.90;87.70;;;;;;5157121;27;19923;-76
2022/07/13 10:32:29;;;;;;;;;;;32.50;87.50;;;;;;5155172;27;19930;-76
2022/07/13 10:35:03;;;;;;;;;;;32.70;89.50;;;;;;5141259;27;20048;-77
2022/07/13 10:37:48;;;;;;;;;;;32.60;89.20;;;;;;5146454;27;19922;-78
2022/07/13 10:40:15;;;;;;;;;;;32.00;90.00;;;;;;5147413;27;19964;-76
2022/07/13 10:42:53;;;;;;;;;;;32.20;88.70;;;;;;5144633;27;19930;-79
2022/07/13 10:45:40;;;;;;;;;;;32.20;88.60;;;;;;5141154;27;19923;-79
2022/07/13 10:48:21;;;;;;;;;;;31.40;90.30;;;;;;5081922;27;1761730;-79
2022/07/13 10:50:48;;;;;;;;;;;31.50;90.30;;;;;;5156701;27;19923;-79
2022/07/13 10:53:18;;;;;;;;;;;31.50;90.70;;;;;;5157314;27;19966;-86
2022/07/13 10:55:51;;;;;;;;;;;31.50;90.80;;;;;;5142462;27;19931;-86
2022/07/13 10:58:31;;;;;;;;;;;31.50;90.60;;;;;;5139158;27;20301;-80
2022/07/13 11:01:02;;;;;;;;;;;31.20;91.00;;;;;;5140437;27;19945;-81
2022/07/13 11:03:35;;;;;;;;;;;31.10;91.20;;;;;;5142074;27;19930;-81
2022/07/13 11:06:08;;;;;;;;;;;31.30;91.10;;;;;;5162125;27;20015;-79
2022/07/13 11:08:34;;;;;;;;;;;31.30;91.10;;;;;;5164281;27;19950;-79
2022/07/13 11:11:11;;;;;;;;;;;31.10;91.40;;;;;;5148834;27;19930;-78
2022/07/13 11:13:37;;;;;;;;;;;31.00;91.50;;;;;;5163663;27;19982;-80
2022/07/13 11:16:03;;;;;;;;;;;30.70;91.20;;;;;;5144082;27;19923;-79
2022/07/13 11:18:30;;;;;;;;;;;30.70;91.90;;;;;;5145732;27;20435;-81
2022/07/13 11:20:56;;;;;;;;;;;29.80;92.60;;;;;;5145787;27;19930;-83
2022/07/13 11:26:10;;;;;;;;;;;30.00;93.00;;;;;;5145822;27;19958;-82
2022/07/13 11:28:50;;;;;;;;;;;30.10;92.90;;;;;;5163500;27;19923;-79
2022/07/13 11:31:16;;;;;;;;;;;30.00;93.10;;;;;;5141903;27;19930;-87
2022/07/13 11:33:51;;;;;;;;;;;30.10;93.30;;;;;;5139102;27;19923;-82
2022/07/13 11:36:21;;;;;;;;;;;30.40;92.60;;;;;;5154152;27;19923;-84
2022/07/13 11:38:47;;;;;;;;;;;30.30;92.80;;;;;;5146118;27;19931;-90
2022/07/13 11:41:20;;;;;;;;;;;29.90;93.50;;;;;;5160089;27;19930;-83
2022/07/13 11:43:46;;;;;;;;;;;30.30;93.80;;;;;;5143840;27;19927;-80
2022/07/13 11:46:12;;;;;;;;;;;30.30;93.60;;;;;;5143663;27;19924;-86
2022/07/13 11:48:38;;;;;;;;;;;30.20;93.60;;;;;;5164927;27;19922;-87
2022/07/13 11:51:09;;;;;;;;;;;29.10;93.80;;;;;;5161036;27;20338;-79
2022/07/13 11:53:35;;;;;;;;;;;28.60;94.10;;;;;;5157342;27;19964;-77
2022/07/13 11:56:08;;;;;;;;;;;28.60;94.20;;;;;;5165095;27;19923;-83
2022/07/13 11:58:34;;;;;;;;;;;28.00;95.20;;;;;;5137946;27;20031;-81
2022/07/13 12:01:01;;;;;;;;;;;28.10;95.60;;;;;;5164242;27;20019;-82
2022/07/13 12:03:33;;;;;;;;;;;28.00;95.70;;;;;;5145113;27;19919;-85
2022/07/13 12:06:00;;;;;;;;;;;28.20;94.90;;;;;;5142465;27;19982;-83
2022/07/13 12:08:29;;;;;;;;;;;27.80;95.00;;;;;;5143000;27;19923;-79
2022/07/13 12:10:55;;;;;;;;;;;27.50;94.90;;;;;;5144973;27;19930;-83
2022/07/13 12:13:21;;;;;;;;;;;27.80;94.70;;;;;;5163099;27;19929;-86
2022/07/13 12:15:46;;;;;;;;;;;27.90;95.30;;;;;;5158774;27;19923;-83
2022/07/13 12:18:13;;;;;;;;;;;28.00;94.90;;;;;;5140253;27;20385;-82
2022/07/13 12:20:39;;;;;;;;;;;28.10;95.20;;;;;;5160756;27;19923;-90
2022/07/13 12:23:05;;;;;;;;;;;28.40;94.30;;;;;;5158726;27;19945;-78
2022/07/13 12:25:34;;;;;;;;;;;27.90;95.20;;;;;;5153370;27;20340;-81
2022/07/13 12:28:01;;;;;;;;;;;28.10;95.20;;;;;;5157834;27;19922;-81
2022/07/13 12:30:28;;;;;;;;;;;28.10;94.90;;;;;;5143498;27;20033;-78
2022/07/13 12:32:54;;;;;;;;;;;28.50;94.10;;;;;;5162862;27;19977;-80
2022/07/13 12:35:20;;;;;;;;;;;28.00;94.30;;;;;;5142451;27;20001;-80
2022/07/13 12:37:52;;;;;;;;;;;27.90;94.50;;;;;;5144448;27;20384;-82
2022/07/13 12:40:41;;;;;;;;;;;28.10;94.30;;;;;;5166657;27;20365;-82
2022/07/13 12:43:18;;;;;;;;;;;28.30;94.40;;;;;;5130570;27;19923;-79
2022/07/13 12:46:06;;;;;;;;;;;28.10;94.30;;;;;;5162943;27;19987;-81
2022/07/13 12:48:33;;;;;;;;;;;27.80;94.20;;;;;;5140769;27;19923;-84
2022/07/13 12:51:03;;;;;;;;;;;27.50;94.30;;;;;;5129198;27;19922;-86
2022/07/13 12:53:48;;;;;;;;;;;27.40;93.70;;;;;;5158370;27;20370;-86
2022/07/13 12:56:17;;;;;;;;;;;27.20;94.20;;;;;;5140055;27;19930;-83
2022/07/13 12:58:44;;;;;;;;;;;27.40;94.10;;;;;;5161013;27;19923;-82
2022/07/13 13:01:27;;;;;;;;;;;27.60;94.10;;;;;;5145423;27;20017;-82
2022/07/13 13:03:52;;;;;;;;;;;27.60;93.90;;;;;;5141591;27;19931;-79
2022/07/13 13:06:18;;;;;;;;;;;27.60;93.60;;;;;;5164905;27;19923;-80
2022/07/13 13:08:44;;;;;;;;;;;27.50;93.40;;;;;;5163165;27;19926;-80
2022/07/13 13:11:12;;;;;;;;;;;27.50;93.70;;;;;;5146697;27;20362;-80
2022/07/13 13:13:38;;;;;;;;;;;27.40;93.80;;;;;;5142854;27;20267;-79
2022/07/13 13:16:04;;;;;;;;;;;27.20;93.40;;;;;;5148286;27;19926;-78
2022/07/13 13:18:30;;;;;;;;;;;27.20;93.70;;;;;;5162805;27;19923;-80
2022/07/13 13:20:59;;;;;;;;;;;26.90;93.50;;;;;;5172443;27;19923;-79
2022/07/13 13:23:37;;;;;;;;;;;26.80;93.60;;;;;;5174091;27;20012;-80
2022/07/13 13:26:06;;;;;;;;;;;26.90;93.50;;;;;;5143008;27;20286;-81
2022/07/13 13:30:43;;;;;;;;;;;26.70;93.70;;;;;;5141132;27;19919;-81
2022/07/13 13:31:17;;;;;;;;;;;26.80;93.60;;;;;;5142131;27;20297;-79
2022/07/13 13:33:42;;;;;;;;;;;26.80;92.50;;;;;;5166442;27;19937;-83
2022/07/13 13:36:10;;;;;;;;;;;26.90;91.70;;;;;;5163192;27;19923;-84
2022/07/13 13:38:36;;;;;;;;;;;26.90;92.00;;;;;;5162993;27;19923;-81
2022/07/13 13:41:01;;;;;;;;;;;26.80;92.20;;;;;;5167165;27;20002;-81
2022/07/13 13:43:27;;;;;;;;;;;26.80;91.70;;;;;;5147070;27;20293;-81
2022/07/13 13:45:52;;;;;;;;;;;26.80;92.00;;;;;;5148781;27;19923;-80
2022/07/13 13:48:18;;;;;;;;;;;26.80;92.30;;;;;;5164687;27;20014;-81
2022/07/13 13:50:43;;;;;;;;;;;27.00;91.10;;;;;;5168618;27;19930;-79
2022/07/13 13:53:09;;;;;;;;;;;27.00;91.70;;;;;;5145815;27;20253;-79
2022/07/13 13:55:34;;;;;;;;;;;27.10;91.90;;;;;;5167574;27;19927;-70
2022/07/13 13:58:00;;;;;;;;;;;27.10;92.50;;;;;;5146989;27;19922;-71
2022/07/13 14:00:26;;;;;;;;;;;27.30;92.50;;;;;;5140998;27;20289;-72
2022/07/13 14:02:52;;;;;;;;;;;27.10;92.10;;;;;;5141572;27;19929;-70
2022/07/13 14:05:18;;;;;;;;;;;27.00;92.60;;;;;;5142211;27;19923;-69
2022/07/13 14:07:43;;;;;;;;;;;27.10;92.90;;;;;;5164320;27;20402;-70
2022/07/13 14:10:09;;;;;;;;;;;27.10;92.70;;;;;;5168340;27;20437;-75
2022/07/13 14:12:35;;;;;;;;;;;27.10;92.90;;;;;;5146166;27;19923;-72
2022/07/13 14:15:01;;;;;;;;;;;27.00;93.70;;;;;;5144420;27;20458;-69
2022/07/13 14:17:27;;;;;;;;;;;27.00;92.70;;;;;;5143523;27;19966;-70
2022/07/13 14:19:52;;;;;;;;;;;27.10;92.70;;;;;;5144976;27;19981;-69
2022/07/13 14:22:18;;;;;;;;;;;27.10;92.50;;;;;;5162008;27;19923;-70
2022/07/13 14:24:43;;;;;;;;;;;27.30;93.40;;;;;;5147686;27;20058;-70
2022/07/13 14:27:09;;;;;;;;;;;27.00;93.20;;;;;;5144517;27;20334;-69